West Peterborough, New Hampshire
Current Conditions -  °F | °C
As of 12:52 PM on Saturday 25 Oct 2014 (Local Time) from KAFN Reporting Station
Scattered Clouds Scattered Clouds  
Wind Chill: 57°   Ceiling: Unl
Heat Index: 57°   Visibility: 10mi
Dew Point: 38°   Wind: 12mph
Humidity: 49%   Direction: 260°W
Pressure: 29.7"   Gusts: NA
Location:  42.89°N, 71.99°W
Report Text: KAFN 251652Z AUTO 26010KT 10SM SCT070 14/03 A2970 RMK AO2 SLP062 T01390033
Loading
Personal Weather Stations






























Interactive Weather Map
Tropical Storm Tracking
New forecast layout! Learn more

10-Day Weather Forecast

Advertisements
Track Severe Weather on mobile